Time;durP1;ratioP1;P1;durP2;ratioP2;P2;SDS_P1;SDS_P2;PMS_P1;PMS_P2;Temp;Humidity;BMP_temperature;BMP_pressure;BME280_temperature;BME280_humidity;BME280_pressure;Samples;Min_cycle;Max_cycle;Signal;HPM_P1;HPM_P2
2023/07/28 07:01:23;;;;;;;0.52;0.52;;;19.90;99.90;22.40;100432.00;;;;6255124;22;1385739;-65
2023/07/28 07:03:51;;;;;;;0.47;0.47;;;19.90;99.90;22.80;100432.00;;;;6309318;22;20603;-65
2023/07/28 07:06:20;;;;;;;0.50;0.50;;;20.20;99.90;22.30;100427.00;;;;6282048;22;20519;-65
2023/07/28 07:08:48;;;;;;;0.20;0.20;;;19.90;99.90;22.90;100438.00;;;;6309437;22;20141;-64
2023/07/28 07:11:17;;;;;;;0.40;0.40;;;20.10;99.90;22.10;100427.00;;;;6309719;22;20147;-65
2023/07/28 07:13:43;;;;;;;0.35;0.35;;;20.00;99.90;21.60;100451.00;;;;6282764;22;20148;-64
2023/07/28 07:16:16;;;;;;;0.88;0.88;;;19.80;99.90;22.40;100447.00;;;;6281475;22;20148;-65
2023/07/28 07:18:45;;;;;;;0.30;0.30;;;19.80;99.90;21.80;100443.00;;;;6279506;22;20202;-65
2023/07/28 07:21:13;;;;;;;0.20;0.20;;;19.80;99.90;22.00;100463.00;;;;6307037;22;20144;-65
2023/07/28 07:23:39;;;;;;;0.68;0.68;;;19.80;99.90;22.90;100448.00;;;;6306923;22;20171;-65
2023/07/28 07:26:09;;;;;;;0.22;0.22;;;20.10;99.90;23.60;100447.00;;;;6308461;22;20526;-65
2023/07/28 07:28:38;;;;;;;0.45;0.45;;;20.40;99.90;23.40;100431.00;;;;6309495;22;20145;-65
2023/07/28 07:31:16;;;;;;;0.20;0.20;;;20.70;99.90;23.40;100421.00;;;;6309017;22;20163;-65
2023/07/28 07:33:44;;;;;;;1.38;0.88;;;20.90;99.90;21.60;100437.00;;;;6281989;22;20159;-66
2023/07/28 07:36:35;;;;;;;0.57;0.57;;;20.20;99.90;21.60;100434.00;;;;6281586;22;20258;-66
2023/07/28 07:39:08;;;;;;;0.70;0.70;;;19.90;99.90;21.90;100446.00;;;;6280474;22;20141;-66
2023/07/28 07:41:34;;;;;;;0.30;0.30;;;19.90;99.90;22.80;100447.00;;;;6254540;22;20572;-66
2023/07/28 07:44:03;;;;;;;1.63;1.40;;;20.20;99.90;23.20;100432.00;;;;6308623;22;20136;-66
2023/07/28 07:46:35;;;;;;;0.20;0.20;;;20.50;99.90;23.50;100432.00;;;;6305685;22;20511;-66
2023/07/28 07:49:05;;;;;;;0.30;0.30;;;20.70;99.90;22.50;100435.00;;;;6281522;22;20507;-65
2023/07/28 07:51:34;;;;;;;0.32;0.32;;;20.40;99.90;23.10;100448.00;;;;6309101;22;20141;-66
2023/07/28 07:54:03;;;;;;;0.68;0.68;;;20.60;99.90;22.70;100411.00;;;;6309281;22;20582;-66
2023/07/28 07:56:32;;;;;;;0.40;0.40;;;20.50;99.90;22.20;100438.00;;;;6282627;22;20139;-66
2023/07/28 07:59:01;;;;;;;0.30;0.30;;;20.20;99.90;23.00;100446.00;;;;6281542;22;20167;-66
2023/07/28 08:01:29;;;;;;;1.50;1.40;;;20.40;99.90;22.20;100458.00;;;;6252667;22;20616;-66
2023/07/28 08:03:55;;;;;;;0.20;0.20;;;20.20;99.90;22.50;100459.00;;;;6251148;22;20138;-66
2023/07/28 08:06:21;;;;;;;0.20;0.20;;;20.20;99.90;23.80;100442.00;;;;6277315;22;20176;-66
2023/07/28 08:08:50;;;;;;;0.52;0.52;;;20.50;99.90;23.20;100452.00;;;;6278318;22;20557;-66
2023/07/28 08:11:24;;;;;;;3.40;1.58;;;20.70;99.90;22.60;100466.00;;;;6250473;22;20145;-66
2023/07/28 08:14:11;;;;;;;0.20;0.20;;;20.30;99.90;23.80;100460.00;;;;6225804;22;20161;-66
2023/07/28 08:16:40;;;;;;;0.20;0.20;;;20.70;99.90;23.50;100458.00;;;;6276090;22;20161;-66
2023/07/28 08:19:19;;;;;;;0.25;0.25;;;20.90;99.90;23.80;100454.00;;;;6277590;22;20164;-66
2023/07/28 08:21:47;;;;;;;0.63;0.63;;;20.90;99.90;23.30;100455.00;;;;6250637;22;20232;-66
2023/07/28 08:24:16;;;;;;;0.30;0.30;;;21.20;99.90;22.40;100464.00;;;;6277481;22;20647;-66
2023/07/28 08:26:55;;;;;;;0.20;0.20;;;20.70;99.90;24.90;100468.00;;;;6249245;22;20180;-67
2023/07/28 08:29:29;;;;;;;0.30;0.30;;;21.30;99.90;23.40;100458.00;;;;6277614;22;20157;-66
2023/07/28 08:32:02;;;;;;;0.20;0.20;;;21.30;99.90;23.50;100466.00;;;;6277444;22;20145;-66
2023/07/28 08:34:36;;;;;;;0.28;0.28;;;21.10;99.90;22.70;100468.00;;;;6277554;22;20149;-66
2023/07/28 08:37:06;;;;;;;1.00;1.00;;;20.80;99.90;23.30;100465.00;;;;6250626;22;20161;-66
2023/07/28 08:39:39;;;;;;;0.60;0.60;;;20.90;99.90;22.80;100465.00;;;;6276163;22;20148;-66
2023/07/28 08:42:07;;;;;;;0.77;0.77;;;20.80;99.90;23.10;100467.00;;;;6275951;22;20172;-66
2023/07/28 08:44:34;;;;;;;1.40;1.30;;;20.90;99.90;22.60;100476.00;;;;6276759;22;20157;-66
2023/07/28 08:47:06;;;;;;;0.50;0.50;;;20.90;99.90;24.00;100478.00;;;;6224917;22;20558;-66
2023/07/28 08:49:35;;;;;;;1.00;0.93;;;21.30;99.90;23.80;100471.00;;;;6277799;22;20187;-64
2023/07/28 08:52:03;;;;;;;0.80;0.80;;;21.70;99.90;23.50;100466.00;;;;6277199;22;20169;-66
2023/07/28 08:54:32;;;;;;;0.20;0.20;;;21.60;99.90;23.80;100465.00;;;;6250678;22;20171;-65
2023/07/28 08:57:01;;;;;;;0.38;0.38;;;21.60;99.90;23.90;100445.00;;;;6277584;22;20149;-65
2023/07/28 08:59:29;;;;;;;0.95;0.75;;;21.50;99.90;24.40;100472.00;;;;6253679;22;20218;-65
2023/07/28 09:02:01;;;;;;;0.20;0.20;;;21.90;99.90;24.00;100440.00;;;;6280115;22;20211;-65
2023/07/28 09:04:36;;;;;;;0.95;0.95;;;21.90;99.90;23.40;100464.00;;;;6308471;22;20140;-64
2023/07/28 09:07:05;;;;;;;1.23;0.98;;;21.70;99.90;23.20;100472.00;;;;6275706;22;20599;-64
2023/07/28 09:09:40;;;;;;;1.48;0.73;;;21.40;99.90;23.40;100467.00;;;;6306446;22;20560;-64
2023/07/28 09:12:08;;;;;;;0.40;0.40;;;21.40;99.90;23.50;100473.00;;;;6306355;22;20172;-64
2023/07/28 09:14:36;;;;;;;0.20;0.20;;;21.40;99.90;24.20;100450.00;;;;6279664;22;20145;-64
2023/07/28 09:17:13;;;;;;;0.17;0.17;;;21.70;99.90;24.30;100465.00;;;;6277601;22;20159;-64
2023/07/28 09:19:56;;;;;;;0.65;0.65;;;21.90;99.90;24.10;100476.00;;;;6279188;22;20732;-64
2023/07/28 09:22:23;;;;;;;0.75;0.75;;;22.10;99.90;24.40;100474.00;;;;6306396;22;20227;-64
2023/07/28 09:24:57;;;;;;;0.20;0.20;;;22.20;99.90;25.60;100479.00;;;;6279181;22;20140;-64
2023/07/28 09:27:31;;;;;;;0.57;0.57;;;22.50;99.90;24.80;100477.00;;;;6278340;22;20152;-64
2023/07/28 09:30:00;;;;;;;1.90;1.67;;;22.40;99.90;24.00;100474.00;;;;6306365;22;20205;-64
2023/07/28 09:32:36;;;;;;;0.40;0.40;;;22.10;99.90;25.10;100484.00;;;;6280088;22;20214;-64
2023/07/28 09:35:12;;;;;;;0.43;0.43;;;22.50;99.90;25.40;100492.00;;;;6305768;22;20464;-64
2023/07/28 09:37:43;;;;;;;0.20;0.20;;;22.70;99.90;24.60;100480.00;;;;6306587;22;20588;-64
2023/07/28 09:40:21;;;;;;;0.20;0.20;;;22.50;99.90;24.70;100489.00;;;;6279714;22;20140;-64
2023/07/28 09:42:49;;;;;;;0.65;0.65;;;22.40;99.90;25.10;100488.00;;;;6306716;22;20257;-64
2023/07/28 09:45:21;;;;;;;0.32;0.32;;;22.60;99.90;23.90;100487.00;;;;6305266;22;20463;-63
2023/07/28 09:47:50;;;;;;;0.40;0.40;;;22.20;99.90;24.30;100483.00;;;;6306022;22;20143;-66
2023/07/28 09:50:23;;;;;;;1.02;1.02;;;22.10;99.90;25.00;100492.00;;;;6278734;22;20144;-65
2023/07/28 09:52:54;;;;;;;0.32;0.32;;;22.60;99.90;25.90;100497.00;;;;6276610;22;20565;-65
2023/07/28 09:55:20;;;;;;;0.25;0.22;;;22.90;99.90;25.80;100501.00;;;;6279113;22;20144;-63
2023/07/28 09:57:51;;;;;;;0.30;0.30;;;23.20;99.90;25.30;100504.00;;;;6305037;22;20584;-63
2023/07/28 10:00:18;;;;;;;0.40;0.35;;;23.10;99.90;25.90;100519.00;;;;6278354;22;20164;-63
2023/07/28 10:02:45;;;;;;;0.30;0.30;;;23.40;99.90;25.20;100509.00;;;;6252956;22;20179;-63
2023/07/28 10:05:11;;;;;;;0.15;0.15;;;23.10;99.90;25.50;100517.00;;;;6305190;22;20295;-64
2023/07/28 10:07:41;;;;;;;0.65;0.65;;;23.10;99.90;23.60;100483.00;;;;6278913;22;20145;-64
2023/07/28 10:10:11;;;;;;;1.15;1.15;;;22.40;99.90;23.80;100511.00;;;;6305693;22;20132;-64
2023/07/28 10:12:54;;;;;;;0.63;0.63;;;21.90;99.90;24.00;100517.00;;;;6278684;22;20172;-64
2023/07/28 10:15:37;;;;;;;0.20;0.20;;;22.00;99.90;24.60;100522.00;;;;6276925;22;20160;-65
2023/07/28 10:18:09;;;;;;;0.15;0.15;;;22.30;99.90;25.60;100518.00;;;;6306053;22;20144;-64
2023/07/28 10:20:40;;;;;;;0.45;0.45;;;22.50;99.90;24.10;100526.00;;;;6278467;22;20530;-64
2023/07/28 10:33:44;;;;;;;0.10;0.10;;;21.90;99.90;25.00;100511.00;;;;5088448;27;21117;-64
2023/07/28 10:36:21;;;;;;;0.20;0.20;;;22.20;99.90;24.00;100517.00;;;;5067172;28;20197;-64
2023/07/28 10:39:17;;;;;;;0.20;0.20;;;22.10;99.90;24.80;100520.00;;;;5068199;28;20220;-65
2023/07/28 10:42:10;;;;;;;0.35;0.35;;;22.60;99.90;24.10;100496.00;;;;5067337;28;20189;-64
2023/07/28 10:44:40;;;;;;;0.10;0.10;;;22.40;99.90;25.10;100516.00;;;;5066640;28;20556;-65
2023/07/28 10:47:13;;;;;;;2.20;1.00;;;22.50;99.90;26.70;100528.00;;;;5069423;28;20182;-64
2023/07/28 10:49:39;;;;;;;0.10;0.10;;;23.20;99.90;25.70;100539.00;;;;5051786;28;20193;-64
2023/07/28 10:52:12;;;;;;;0.20;0.20;;;23.20;99.90;24.80;100515.00;;;;5069465;28;20355;-64
2023/07/28 10:54:38;;;;;;;0.35;0.35;;;22.70;99.90;25.50;100530.00;;;;5070034;28;20181;-64
2023/07/28 10:57:09;;;;;;;0.10;0.10;;;23.00;99.90;25.30;100525.00;;;;5066638;28;20197;-64
2023/07/28 10:59:43;;;;;;;1.70;1.15;;;22.90;99.90;24.40;100519.00;;;;5068029;28;20193;-64
2023/07/28 11:02:19;;;;;;;1.17;0.73;;;22.70;99.90;24.30;100518.00;;;;5067557;28;20224;-64
2023/07/28 11:04:56;;;;;;;0.63;0.63;;;22.40;99.90;23.10;100505.00;;;;5067445;28;20185;-64
2023/07/28 11:07:31;;;;;;;0.88;0.60;;;21.70;99.90;23.30;100497.00;;;;5065502;28;20185;-64
2023/07/28 11:10:08;;;;;;;0.20;0.20;;;21.50;99.90;25.10;100510.00;;;;5049812;28;20233;-65
2023/07/28 11:12:46;;;;;;;0.10;0.10;;;22.00;99.90;26.20;100527.00;;;;5049500;28;20224;-65
2023/07/28 11:15:20;;;;;;;0.22;0.22;;;22.70;99.90;26.20;100531.00;;;;5064746;28;20178;-65
2023/07/28 11:17:51;;;;;;;0.15;0.15;;;23.20;99.90;24.60;100523.00;;;;5065535;28;20575;-65
2023/07/28 11:20:29;;;;;;;0.75;0.70;;;22.70;99.90;24.30;100526.00;;;;5065512;28;20665;-65
2023/07/28 11:23:04;;;;;;;0.10;0.10;;;22.40;99.90;25.10;100519.00;;;;5068002;28;20194;-65
2023/07/28 11:25:32;;;;;;;0.22;0.22;;;22.30;99.90;27.40;100562.00;;;;5081632;28;20184;-65
2023/07/28 11:28:03;;;;;;;1.08;0.82;;;23.50;99.90;24.60;100536.00;;;;5067789;28;20186;-65
2023/07/28 11:30:38;;;;;;;0.63;0.63;;;22.80;99.90;26.30;100548.00;;;;5067952;28;20272;-65
2023/07/28 11:33:12;;;;;;;0.10;0.10;;;23.10;99.90;26.80;100561.00;;;;5084225;28;20674;-65
2023/07/28 11:35:44;;;;;;;0.30;0.30;;;23.70;99.90;24.30;100528.00;;;;5068041;28;20196;-65
2023/07/28 11:38:16;;;;;;;0.20;0.20;;;22.80;99.90;23.40;100506.00;;;;5067789;28;20182;-64
2023/07/28 11:40:51;;;;;;;0.10;0.10;;;22.00;99.90;25.70;100540.00;;;;5074641;28;20186;-65
2023/07/28 11:43:27;;;;;;;0.10;0.10;;;22.30;99.90;25.80;100548.00;;;;5061358;28;20193;-65
2023/07/28 11:45:58;;;;;;;0.10;0.10;;;22.70;99.90;25.20;100537.00;;;;5054775;28;20200;-65
2023/07/28 11:48:31;;;;;;;0.10;0.10;;;22.80;99.90;25.40;100546.00;;;;5060712;28;20197;-64
2023/07/28 11:51:05;;;;;;;1.77;0.52;;;22.80;99.90;25.70;100551.00;;;;5054949;28;20644;-64
2023/07/28 11:53:37;;;;;;;0.10;0.10;;;22.80;99.90;26.80;100558.00;;;;5054570;28;20240;-64
2023/07/28 11:56:13;;;;;;;0.82;0.82;;;23.10;99.90;27.40;100570.00;;;;5053397;28;20186;-64
2023/07/28 11:58:51;;;;;;;0.10;0.10;;;23.70;99.90;26.70;100547.00;;;;5052400;28;20228;-64
2023/07/28 12:01:25;;;;;;;0.10;0.10;;;23.80;99.90;25.80;100546.00;;;;5053356;28;20194;-64
2023/07/28 12:03:58;;;;;;;0.43;0.43;;;23.10;99.90;26.10;100552.00;;;;5053314;28;20205;-64
2023/07/28 12:06:24;;;;;;;0.10;0.10;;;23.40;99.90;25.40;100543.00;;;;5054461;28;20595;-64
2023/07/28 12:09:08;;;;;;;0.30;0.30;;;22.80;99.90;25.90;100551.00;;;;5055457;28;20194;-64
2023/07/28 12:11:44;;;;;;;0.10;0.10;;;23.10;99.90;25.90;100563.00;;;;5053065;28;20194;-64
2023/07/28 12:14:12;;;;;;;0.20;0.20;;;23.30;99.90;24.40;100551.00;;;;5052955;28;20654;-64
2023/07/28 12:16:50;;;;;;;4.85;4.40;;;22.80;99.90;25.00;100534.00;;;;5054588;28;20186;-67
2023/07/28 12:19:24;;;;;;;0.22;0.22;;;22.60;99.90;25.30;100540.00;;;;5063831;28;20202;-65
2023/07/28 12:21:58;;;;;;;0.30;0.30;;;22.90;99.90;24.90;100550.00;;;;5051734;28;20188;-65
2023/07/28 12:24:31;;;;;;;1.27;0.65;;;23.00;99.90;24.30;100543.00;;;;5054913;28;20190;-65
2023/07/28 12:27:02;;;;;;;1.30;0.88;;;22.60;99.90;25.40;100560.00;;;;5055011;28;20213;-65
2023/07/28 12:29:40;;;;;;;0.98;0.80;;;22.80;99.90;24.50;100536.00;;;;5053777;28;20205;-65
2023/07/28 12:32:17;;;;;;;0.55;0.55;;;22.60;99.90;24.20;100550.00;;;;5048007;28;20208;-65
2023/07/28 12:34:53;;;;;;;0.50;0.32;;;22.50;99.90;24.20;100555.00;;;;5053718;28;20194;-65
2023/07/28 12:37:29;;;;;;;0.30;0.30;;;22.40;99.90;24.50;100555.00;;;;5053629;28;20273;-65
2023/07/28 12:40:05;;;;;;;0.25;0.25;;;22.40;99.90;24.40;100561.00;;;;5069192;28;20178;-65
2023/07/28 12:42:36;;;;;;;0.10;0.10;;;22.30;99.90;25.10;100559.00;;;;5048459;28;20545;-66
2023/07/28 12:45:08;;;;;;;4.95;0.65;;;22.40;99.90;25.40;100575.00;;;;5053538;28;20174;-65
2023/07/28 12:47:45;;;;;;;0.10;0.10;;;22.90;99.90;24.90;100566.00;;;;5052969;28;20191;-65
2023/07/28 12:50:20;;;;;;;0.45;0.45;;;22.80;99.90;24.90;100571.00;;;;5069105;28;20178;-65
2023/07/28 12:52:52;;;;;;;0.13;0.13;;;22.90;99.90;24.30;100566.00;;;;5052801;28;20213;-65
2023/07/28 12:55:29;;;;;;;0.10;0.10;;;22.50;99.90;25.80;100574.00;;;;5051848;28;20202;-65
2023/07/28 12:58:03;;;;;;;0.30;0.30;;;22.80;99.90;26.00;100578.00;;;;5069674;28;20186;-65
2023/07/28 13:00:35;;;;;;;0.57;0.57;;;23.20;99.90;25.20;100579.00;;;;5053700;28;20205;-65
2023/07/28 13:03:06;;;;;;;3.30;1.08;;;23.10;99.90;25.10;100569.00;;;;5052718;28;20732;-65
2023/07/28 13:05:37;;;;;;;0.40;0.40;;;22.80;99.90;25.00;100574.00;;;;5053022;28;20242;-65
2023/07/28 13:08:13;;;;;;;0.10;0.10;;;22.70;99.90;25.00;100575.00;;;;5053659;28;20186;-65
2023/07/28 13:10:47;;;;;;;0.55;0.30;;;22.70;99.90;25.00;100578.00;;;;5046496;28;20548;-65
2023/07/28 13:13:21;;;;;;;0.85;0.85;;;22.60;99.90;24.70;100575.00;;;;5053981;28;20206;-65
2023/07/28 13:15:56;;;;;;;0.40;0.40;;;22.60;99.90;24.70;100574.00;;;;5054132;28;20679;-65
2023/07/28 13:18:36;;;;;;;0.10;0.10;;;22.70;99.90;24.40;100560.00;;;;5052510;28;20187;-65
2023/07/28 13:21:13;;;;;;;0.10;0.10;;;22.40;99.90;27.40;100593.00;;;;5051761;28;20174;-65
2023/07/28 13:23:50;;;;;;;0.10;0.10;;;23.40;99.90;26.20;100571.00;;;;5051515;28;20541;-65
2023/07/28 13:26:26;;;;;;;0.20;0.20;;;23.50;99.90;27.00;100577.00;;;;5054123;28;20698;-65
2023/07/28 13:29:06;;;;;;;0.28;0.28;;;23.80;99.90;25.00;100566.00;;;;5048891;28;20174;-65
2023/07/28 13:31:40;;;;;;;0.30;0.30;;;23.30;99.90;27.10;100583.00;;;;5046083;28;20225;-65
2023/07/28 13:34:18;;;;;;;0.38;0.38;;;23.80;99.90;27.20;100590.00;;;;5051919;28;20205;-65
2023/07/28 13:36:49;;;;;;;0.28;0.28;;;24.30;99.90;25.40;100572.00;;;;5052102;28;20186;-65
2023/07/28 13:39:23;;;;;;;1.33;0.70;;;23.90;99.90;25.10;100552.00;;;;5052851;28;20189;-65
2023/07/28 13:41:59;;;;;;;0.22;0.22;;;23.50;99.90;25.70;100574.00;;;;5051643;28;20509;-65
2023/07/28 13:44:25;;;;;;;0.28;0.28;;;23.50;99.90;25.60;100569.00;;;;5053259;28;20182;-65
2023/07/28 13:47:07;;;;;;;0.40;0.40;;;23.40;99.90;25.60;100577.00;;;;5053218;28;20592;-65
2023/07/28 13:49:36;;;;;;;0.17;0.17;;;23.60;99.90;25.40;100571.00;;;;5056143;28;20181;-65
2023/07/28 13:52:06;;;;;;;0.17;0.17;;;23.30;99.90;26.00;100575.00;;;;5052162;28;20202;-65
2023/07/28 13:54:36;;;;;;;0.40;0.40;;;23.40;99.90;27.00;100589.00;;;;5051359;28;20178;-65
2023/07/28 13:57:25;;;;;;;0.20;0.20;;;23.80;99.90;26.60;100572.00;;;;5060601;28;20248;-65
2023/07/28 14:00:32;;;;;;;0.65;0.50;;;23.70;99.90;25.20;100566.00;;;;5048292;28;20182;-65
2023/07/28 14:03:38;;;;;;;0.10;0.10;;;23.30;99.90;26.80;100577.00;;;;5048804;28;20224;-65
2023/07/28 14:06:51;;;;;;;0.10;0.10;;;23.40;99.90;26.60;100556.00;;;;5042729;28;20208;-65
2023/07/28 14:09:57;;;;;;;0.40;0.30;;;23.80;99.90;25.70;100566.00;;;;5046413;28;20639;-65
2023/07/28 14:13:06;;;;;;;0.93;0.85;;;23.30;99.90;25.90;100567.00;;;;5041882;28;20217;-65
2023/07/28 14:16:12;;;;;;;0.60;0.47;;;23.50;99.90;25.00;100563.00;;;;5044903;28;20277;-65
2023/07/28 14:19:21;;;;;;;0.30;0.30;;;23.20;99.90;25.00;100562.00;;;;5051386;28;20197;-65
2023/07/28 14:22:05;;;;;;;3.83;0.90;;;23.20;99.90;25.90;100550.00;;;;5049573;28;20213;-65
2023/07/28 14:24:53;;;;;;;0.10;0.10;;;23.60;99.90;25.40;100558.00;;;;5052955;28;20328;-65
2023/07/28 14:27:37;;;;;;;0.22;0.22;;;23.60;99.90;26.40;100578.00;;;;5051489;28;20193;-64
2023/07/28 14:30:06;;;;;;;0.25;0.25;;;24.10;99.90;25.60;100565.00;;;;5053025;28;20186;-64
2023/07/28 14:32:59;;;;;;;0.10;0.10;;;23.90;99.90;26.50;100577.00;;;;5051661;28;20687;-63
2023/07/28 14:35:34;;;;;;;0.20;0.20;;;23.90;99.90;26.70;100575.00;;;;5044392;28;20518;-63
2023/07/28 14:38:19;;;;;;;0.40;0.30;;;24.30;99.90;26.60;100566.00;;;;5052403;28;20174;-64
2023/07/28 14:40:48;;;;;;;0.20;0.20;;;24.30;99.90;25.80;100563.00;;;;5040751;28;20564;-64
2023/07/28 14:43:32;;;;;;;0.10;0.10;;;24.00;99.90;26.70;100547.00;;;;5052553;28;20201;-65
2023/07/28 14:46:26;;;;;;;0.20;0.20;;;24.20;99.90;26.90;100577.00;;;;5048694;28;20190;-65
2023/07/28 14:49:22;;;;;;;0.30;0.20;;;24.70;99.90;25.60;100555.00;;;;5050982;28;20652;-65
2023/07/28 14:52:09;;;;;;;0.52;0.20;;;24.30;99.90;26.10;100552.00;;;;5047577;28;20209;-65
2023/07/28 14:55:02;;;;;;;0.45;0.45;;;24.00;99.90;26.60;100538.00;;;;5043448;28;20182;-65
2023/07/28 14:58:26;;;;;;;0.70;0.43;;;24.30;99.90;26.20;100555.00;;;;5010776;28;20198;-64
2023/07/28 15:01:47;;;;;;;0.17;0.17;;;24.60;99.90;27.80;100563.00;;;;5006200;28;20192;-65
2023/07/28 15:05:05;;;;;;;0.17;0.17;;;24.80;99.90;27.70;100566.00;;;;5010190;28;20219;-66
2023/07/28 15:08:09;;;;;;;0.20;0.20;;;25.00;99.90;28.50;100566.00;;;;5004019;28;20810;-66
2023/07/28 15:11:10;;;;;;;0.30;0.30;;;25.00;99.90;27.00;100576.00;;;;5009905;28;20661;-65
2023/07/28 15:14:15;;;;;;;0.10;0.10;;;24.90;99.90;27.60;100570.00;;;;5005618;28;20622;-65
2023/07/28 15:17:21;;;;;;;0.30;0.30;;;24.80;99.90;27.40;100539.00;;;;5009100;28;20282;-65
2023/07/28 15:20:34;;;;;;;0.10;0.10;;;24.60;99.90;27.30;100562.00;;;;5009502;28;20204;-65
2023/07/28 15:23:45;;;;;;;0.45;0.45;;;24.80;99.90;27.60;100564.00;;;;5006249;28;20579;-65
2023/07/28 15:26:49;;;;;;;0.20;0.20;;;24.80;99.90;28.00;100559.00;;;;5026515;28;20258;-65
2023/07/28 15:30:00;;;;;;;0.17;0.17;;;24.90;99.90;26.60;100541.00;;;;5008036;28;20187;-65
2023/07/28 15:32:46;;;;;;;0.50;0.50;;;24.40;99.90;26.20;100538.00;;;;4986863;28;20216;-65
2023/07/28 15:35:50;;;;;;;0.10;0.10;;;24.30;99.90;27.60;100546.00;;;;5055944;28;20197;-65
2023/07/28 15:38:54;;;;;;;0.68;0.68;;;24.30;99.90;27.30;100568.00;;;;5053777;28;20227;-65
2023/07/28 15:41:40;;;;;;;0.43;0.43;;;24.60;99.90;27.70;100553.00;;;;5050449;28;20204;-65
2023/07/28 15:44:09;;;;;;;0.20;0.20;;;24.70;99.90;26.60;100516.00;;;;5055106;28;20643;-65
2023/07/28 15:47:02;;;;;;;0.20;0.20;;;24.50;99.90;26.60;100520.00;;;;5053964;28;20670;-65
2023/07/28 15:50:06;;;;;;;0.75;0.75;;;24.30;99.90;26.50;100541.00;;;;5049805;28;20691;-65
2023/07/28 15:53:09;;;;;;;0.10;0.10;;;24.40;99.90;27.60;100538.00;;;;5052981;28;20205;-65
2023/07/28 15:55:38;;;;;;;0.10;0.10;;;24.40;99.90;28.90;100562.00;;;;5053079;28;20283;-65
2023/07/28 15:58:26;;;;;;;1.02;0.60;;;24.90;99.90;27.60;100580.00;;;;5053649;28;20235;-65
2023/07/28 16:01:29;;;;;;;0.30;0.30;;;25.00;99.90;27.60;100571.00;;;;5068594;28;20194;-65
2023/07/28 16:04:15;;;;;;;0.50;0.50;;;24.80;99.90;28.30;100595.00;;;;5052188;28;20224;-65
2023/07/28 16:07:04;;;;;;;0.45;0.35;;;25.10;99.90;27.40;100562.00;;;;5052726;28;20525;-65
2023/07/28 16:09:31;;;;;;;1.35;0.40;;;24.80;99.90;26.80;100545.00;;;;5052209;28;20211;-65
2023/07/28 16:12:25;;;;;;;0.20;0.20;;;24.50;99.90;27.90;100560.00;;;;5053600;28;20229;-65
2023/07/28 16:15:36;;;;;;;0.10;0.10;;;24.70;99.90;26.70;100539.00;;;;5046346;28;20214;-65
2023/07/28 16:18:04;;;;;;;0.30;0.20;;;24.30;99.90;27.80;100557.00;;;;5054112;28;20648;-65
2023/07/28 16:20:31;;;;;;;0.52;0.52;;;24.50;99.90;27.30;100576.00;;;;5055520;28;20178;-65
2023/07/28 16:23:19;;;;;;;0.38;0.38;;;24.60;99.90;27.60;100541.00;;;;5054109;28;20229;-65
2023/07/28 16:25:47;;;;;;;0.10;0.10;;;24.60;99.90;27.90;100563.00;;;;5062054;28;20619;-65
2023/07/28 16:28:14;;;;;;;0.10;0.10;;;25.00;99.90;28.40;100558.00;;;;5053385;28;20420;-65
2023/07/28 16:31:02;;;;;;;0.10;0.10;;;25.10;99.90;27.50;100538.00;;;;5054160;28;20405;-65
2023/07/28 16:34:03;;;;;;;0.30;0.30;;;24.70;99.90;27.60;100512.00;;;;5053431;28;20275;-65
2023/07/28 16:37:07;;;;;;;0.10;0.10;;;24.70;99.90;29.10;100557.00;;;;5067138;28;20186;-65
2023/07/28 16:39:58;;;;;;;0.10;0.10;;;25.00;99.90;28.50;100575.00;;;;5069346;28;20647;-65
2023/07/28 16:42:59;;;;;;;0.20;0.20;;;25.20;99.90;27.70;100540.00;;;;5052378;28;20198;-65
2023/07/28 16:45:48;;;;;;;0.10;0.10;;;24.80;99.90;28.10;100527.00;;;;5054128;28;20186;-65
2023/07/28 16:48:59;;;;;;;0.10;0.10;;;24.70;99.90;29.00;100557.00;;;;5036245;28;20596;-65
2023/07/28 16:51:42;;;;;;;0.10;0.10;;;25.00;99.90;29.40;100583.00;;;;5062962;28;20189;-65
2023/07/28 16:54:43;;;;;;;0.25;0.25;;;25.40;99.90;29.20;100591.00;;;;5060082;28;20210;-65
2023/07/28 16:57:12;;;;;;;0.10;0.10;;;25.60;99.90;29.80;100588.00;;;;5068989;28;20613;-65
2023/07/28 17:00:16;;;;;;;2.15;2.05;;;25.70;99.90;29.40;100590.00;;;;5047319;28;20610;-66
2023/07/28 17:03:02;;;;;;;0.10;0.10;;;25.60;99.90;28.30;100583.00;;;;5040410;28;20186;-66
2023/07/28 17:05:29;;;;;;;0.52;0.43;;;25.40;99.90;28.30;100546.00;;;;5058850;28;20214;-66
2023/07/28 17:08:26;;;;;;;0.82;0.82;;;25.10;99.90;29.30;100560.00;;;;5052848;28;20189;-66
2023/07/28 17:11:12;;;;;;;0.10;0.10;;;25.30;99.90;29.80;100574.00;;;;5054199;28;20188;-66
2023/07/28 17:14:33;;;;;;;0.10;0.10;;;25.80;99.90;30.10;100598.00;;;;5057395;28;20592;-66
2023/07/28 17:17:39;;;;;;;0.10;0.10;;;26.00;99.90;28.30;100571.00;;;;5053122;28;20548;-66
2023/07/28 17:21:05;;;;;;;0.10;0.10;;;25.60;99.90;28.90;100558.00;;;;5052801;28;20659;-66
2023/07/28 17:23:56;;;;;;;0.10;0.10;;;25.40;99.90;28.50;100542.00;;;;5050176;28;20216;-66
2023/07/28 17:27:11;;;;;;;0.10;0.10;;;25.40;99.90;28.60;100515.00;;;;5052839;28;20186;-66
2023/07/28 17:30:24;;;;;;;0.10;0.10;;;25.00;99.90;27.80;100514.00;;;;5041446;28;20178;-66
2023/07/28 17:33:16;;;;;;;0.10;0.10;;;24.80;99.90;28.40;100527.00;;;;5040221;28;20248;-66
2023/07/28 17:36:01;;;;;;;0.10;0.10;;;25.00;99.90;28.60;100518.00;;;;5053013;28;20197;-66
2023/07/28 17:38:53;;;;;;;0.43;0.43;;;25.00;99.90;28.50;100559.00;;;;5064938;28;20555;-66
2023/07/28 17:41:24;;;;;;;0.47;0.47;;;25.40;99.90;27.60;100518.00;;;;5041637;28;20648;-66
2023/07/28 17:44:04;;;;;;;0.35;0.35;;;24.90;99.90;26.70;100528.00;;;;5040677;28;20553;-66
2023/07/28 17:46:55;;;;;;;0.38;0.38;;;24.50;99.90;26.70;100529.00;;;;5052269;28;20292;-66
2023/07/28 17:49:44;;;;;;;0.40;0.40;;;24.30;99.90;27.10;100548.00;;;;5053586;28;20189;-66
2023/07/28 17:52:58;;;;;;;0.10;0.10;;;24.40;99.90;26.20;100537.00;;;;5053693;28;20674;-66
2023/07/28 17:55:56;;;;;;;0.85;0.65;;;24.10;99.90;26.80;100546.00;;;;5035015;28;20205;-69
2023/07/28 17:59:18;;;;;;;1.35;0.90;;;24.10;99.90;26.10;100535.00;;;;5031803;28;20225;-67
2023/07/28 18:02:20;;;;;;;0.10;0.10;;;24.00;99.90;26.60;100536.00;;;;5050921;28;20360;-67
2023/07/28 18:09:13;;;;;;;0.40;0.40;;;24.40;99.90;26.80;100567.00;;;;5064718;28;20254;-68
2023/07/28 18:12:17;;;;;;;0.13;0.13;;;24.10;99.90;27.40;100571.00;;;;5067422;28;20267;-63
2023/07/28 18:15:25;;;;;;;0.20;0.20;;;24.20;99.90;27.20;100576.00;;;;5058374;28;20190;-67
2023/07/28 18:18:32;;;;;;;0.30;0.30;;;24.20;99.90;27.00;100572.00;;;;5042497;28;20559;-66
2023/07/28 18:21:23;;;;;;;0.10;0.10;;;24.10;99.90;27.40;100578.00;;;;5045827;28;20462;-67
2023/07/28 18:24:16;;;;;;;0.10;0.10;;;24.10;99.90;26.60;100564.00;;;;5010925;28;20200;-64
2023/07/28 18:26:52;;;;;;;0.47;0.47;;;23.90;99.90;26.40;100577.00;;;;4994866;28;20187;-65
2023/07/28 18:29:18;;;;;;;0.20;0.20;;;23.90;99.90;26.40;100562.00;;;;5043802;28;20209;-65
2023/07/28 18:31:49;;;;;;;0.80;0.43;;;23.70;99.90;26.90;100567.00;;;;5047808;28;20217;-65
2023/07/28 18:34:38;;;;;;;0.35;0.35;;;23.90;99.90;27.50;100572.00;;;;5051694;28;20216;-65
2023/07/28 18:37:30;;;;;;;0.10;0.10;;;24.00;99.90;28.40;100564.00;;;;5066687;28;20232;-65
2023/07/28 18:40:07;;;;;;;0.10;0.10;;;24.40;99.90;27.80;100552.00;;;;5052306;28;20636;-66
2023/07/28 18:42:36;;;;;;;0.15;0.15;;;24.30;99.90;28.30;100565.00;;;;5050443;28;20193;-66
2023/07/28 18:45:02;;;;;;;0.10;0.10;;;24.40;99.90;28.30;100565.00;;;;5051293;28;20212;-66
2023/07/28 18:47:36;;;;;;;0.20;0.20;;;24.40;99.90;27.90;100563.00;;;;5051854;28;20217;-66
2023/07/28 18:50:05;;;;;;;0.10;0.10;;;24.40;99.90;27.40;100539.00;;;;5066004;28;20221;-66
2023/07/28 18:52:41;;;;;;;0.20;0.20;;;24.00;99.90;27.60;100553.00;;;;5050304;28;20232;-66
2023/07/28 18:55:30;;;;;;;1.17;1.17;;;23.90;99.90;27.80;100563.00;;;;5070827;28;20205;-66
2023/07/28 18:57:56;;;;;;;0.20;0.20;;;24.00;99.90;27.90;100568.00;;;;5038592;28;20209;-66
2023/07/28 19:00:31;;;;;;;0.20;0.20;;;24.10;99.90;28.00;100556.00;;;;5037359;28;20194;-66